sensor_id;sensor_type;location;lat;lon;timestamp;P1;durP1;ratioP1;P2;durP2;ratioP2
49139;SDS011;34959;49.310;8.646;2022-12-07T00:01:10;4.40;;;1.55;;
49139;SDS011;34959;49.310;8.646;2022-12-07T00:03:40;3.13;;;1.45;;
49139;SDS011;34959;49.310;8.646;2022-12-07T00:06:10;3.67;;;1.50;;
49139;SDS011;34959;49.310;8.646;2022-12-07T00:08:36;3.40;;;1.48;;
49139;SDS011;34959;49.310;8.646;2022-12-07T00:11:05;5.43;;;1.20;;
49139;SDS011;34959;49.310;8.646;2022-12-07T00:13:32;3.08;;;1.30;;
49139;SDS011;34959;49.310;8.646;2022-12-07T00:16:02;2.35;;;1.20;;
49139;SDS011;34959;49.310;8.646;2022-12-07T00:18:31;5.70;;;1.00;;
49139;SDS011;34959;49.310;8.646;2022-12-07T00:21:00;3.15;;;1.20;;
49139;SDS011;34959;49.310;8.646;2022-12-07T00:23:29;3.78;;;1.45;;
49139;SDS011;34959;49.310;8.646;2022-12-07T00:25:55;4.00;;;1.00;;
49139;SDS011;34959;49.310;8.646;2022-12-07T00:28:20;4.40;;;1.20;;
49139;SDS011;34959;49.310;8.646;2022-12-07T00:30:46;4.38;;;1.30;;
49139;SDS011;34959;49.310;8.646;2022-12-07T00:33:11;1.98;;;0.80;;
49139;SDS011;34959;49.310;8.646;2022-12-07T00:35:37;2.70;;;1.08;;
49139;SDS011;34959;49.310;8.646;2022-12-07T00:38:02;3.90;;;0.98;;
49139;SDS011;34959;49.310;8.646;2022-12-07T00:40:28;1.98;;;0.90;;
49139;SDS011;34959;49.310;8.646;2022-12-07T00:42:53;2.28;;;1.00;;
49139;SDS011;34959;49.310;8.646;2022-12-07T00:45:19;4.15;;;1.23;;
49139;SDS011;34959;49.310;8.646;2022-12-07T00:47:44;2.50;;;1.00;;
49139;SDS011;34959;49.310;8.646;2022-12-07T00:50:10;3.67;;;0.82;;
49139;SDS011;34959;49.310;8.646;2022-12-07T00:52:35;2.67;;;1.10;;
49139;SDS011;34959;49.310;8.646;2022-12-07T00:55:01;1.85;;;1.10;;
49139;SDS011;34959;49.310;8.646;2022-12-07T00:57:26;3.88;;;1.08;;
49139;SDS011;34959;49.310;8.646;2022-12-07T00:59:52;2.03;;;1.10;;
49139;SDS011;34959;49.310;8.646;2022-12-07T01:02:20;2.78;;;1.10;;
49139;SDS011;34959;49.310;8.646;2022-12-07T01:04:48;1.83;;;1.00;;
49139;SDS011;34959;49.310;8.646;2022-12-07T01:07:14;1.88;;;0.95;;
49139;SDS011;34959;49.310;8.646;2022-12-07T01:09:39;1.52;;;0.98;;
49139;SDS011;34959;49.310;8.646;2022-12-07T01:12:04;2.05;;;1.08;;
49139;SDS011;34959;49.310;8.646;2022-12-07T01:14:30;1.65;;;1.02;;
49139;SDS011;34959;49.310;8.646;2022-12-07T01:16:55;2.45;;;0.90;;
49139;SDS011;34959;49.310;8.646;2022-12-07T01:19:21;2.20;;;0.90;;
49139;SDS011;34959;49.310;8.646;2022-12-07T01:21:46;1.95;;;0.95;;
49139;SDS011;34959;49.310;8.646;2022-12-07T01:24:11;2.83;;;1.15;;
49139;SDS011;34959;49.310;8.646;2022-12-07T01:26:37;2.17;;;0.90;;
49139;SDS011;34959;49.310;8.646;2022-12-07T01:29:03;4.22;;;0.93;;
49139;SDS011;34959;49.310;8.646;2022-12-07T01:31:28;6.78;;;1.40;;
49139;SDS011;34959;49.310;8.646;2022-12-07T01:33:57;4.10;;;1.42;;
49139;SDS011;34959;49.310;8.646;2022-12-07T01:38:51;3.15;;;1.60;;
49139;SDS011;34959;49.310;8.646;2022-12-07T01:41:21;2.55;;;1.02;;
49139;SDS011;34959;49.310;8.646;2022-12-07T01:46:46;4.40;;;1.35;;
49139;SDS011;34959;49.310;8.646;2022-12-07T01:49:15;8.65;;;1.40;;
49139;SDS011;34959;49.310;8.646;2022-12-07T01:51:44;7.22;;;2.10;;
49139;SDS011;34959;49.310;8.646;2022-12-07T01:54:11;5.90;;;1.92;;
49139;SDS011;34959;49.310;8.646;2022-12-07T01:56:38;6.05;;;1.85;;
49139;SDS011;34959;49.310;8.646;2022-12-07T01:59:05;5.80;;;1.80;;
49139;SDS011;34959;49.310;8.646;2022-12-07T02:01:30;10.10;;;1.50;;
49139;SDS011;34959;49.310;8.646;2022-12-07T02:03:56;11.02;;;1.70;;
49139;SDS011;34959;49.310;8.646;2022-12-07T02:06:22;3.55;;;1.38;;
49139;SDS011;34959;49.310;8.646;2022-12-07T02:08:49;6.43;;;1.70;;
49139;SDS011;34959;49.310;8.646;2022-12-07T02:11:15;7.32;;;1.63;;
49139;SDS011;34959;49.310;8.646;2022-12-07T02:13:43;2.80;;;1.40;;
49139;SDS011;34959;49.310;8.646;2022-12-07T02:27:07;3.08;;;1.60;;
49139;SDS011;34959;49.310;8.646;2022-12-07T02:30:06;4.35;;;1.50;;
49139;SDS011;34959;49.310;8.646;2022-12-07T02:35:33;4.32;;;1.60;;
49139;SDS011;34959;49.310;8.646;2022-12-07T02:40:43;4.60;;;1.75;;
49139;SDS011;34959;49.310;8.646;2022-12-07T02:45:58;3.17;;;1.47;;
49139;SDS011;34959;49.310;8.646;2022-12-07T02:48:29;2.60;;;1.30;;
49139;SDS011;34959;49.310;8.646;2022-12-07T02:50:57;2.70;;;1.40;;
49139;SDS011;34959;49.310;8.646;2022-12-07T02:56:03;2.70;;;1.48;;
49139;SDS011;34959;49.310;8.646;2022-12-07T03:07:17;6.22;;;1.58;;
49139;SDS011;34959;49.310;8.646;2022-12-07T03:09:58;2.38;;;1.45;;
49139;SDS011;34959;49.310;8.646;2022-12-07T03:13:16;2.55;;;1.50;;
49139;SDS011;34959;49.310;8.646;2022-12-07T03:18:01;3.58;;;1.67;;
49139;SDS011;34959;49.310;8.646;2022-12-07T03:20:28;4.68;;;1.55;;
49139;SDS011;34959;49.310;8.646;2022-12-07T03:22:57;2.13;;;1.30;;
49139;SDS011;34959;49.310;8.646;2022-12-07T03:25:23;2.40;;;1.40;;
49139;SDS011;34959;49.310;8.646;2022-12-07T03:28:00;3.05;;;1.30;;
49139;SDS011;34959;49.310;8.646;2022-12-07T03:30:39;2.30;;;1.38;;
49139;SDS011;34959;49.310;8.646;2022-12-07T03:33:10;4.18;;;1.80;;
49139;SDS011;34959;49.310;8.646;2022-12-07T03:35:47;2.20;;;1.40;;
49139;SDS011;34959;49.310;8.646;2022-12-07T03:38:18;4.55;;;1.70;;
49139;SDS011;34959;49.310;8.646;2022-12-07T03:40:52;2.10;;;1.30;;
49139;SDS011;34959;49.310;8.646;2022-12-07T03:43:25;2.53;;;1.20;;
49139;SDS011;34959;49.310;8.646;2022-12-07T03:48:59;3.38;;;1.70;;
49139;SDS011;34959;49.310;8.646;2022-12-07T03:51:46;2.70;;;1.30;;
49139;SDS011;34959;49.310;8.646;2022-12-07T03:54:28;3.40;;;1.60;;
49139;SDS011;34959;49.310;8.646;2022-12-07T03:57:16;2.92;;;1.48;;
49139;SDS011;34959;49.310;8.646;2022-12-07T03:59:42;2.17;;;1.30;;
49139;SDS011;34959;49.310;8.646;2022-12-07T04:02:08;2.55;;;1.35;;
49139;SDS011;34959;49.310;8.646;2022-12-07T04:04:36;5.25;;;1.58;;
49139;SDS011;34959;49.310;8.646;2022-12-07T04:07:02;2.72;;;1.63;;
49139;SDS011;34959;49.310;8.646;2022-12-07T04:09:27;2.00;;;1.13;;
49139;SDS011;34959;49.310;8.646;2022-12-07T04:11:53;3.50;;;1.67;;
49139;SDS011;34959;49.310;8.646;2022-12-07T04:14:18;2.75;;;1.40;;
49139;SDS011;34959;49.310;8.646;2022-12-07T04:16:47;4.45;;;1.33;;
49139;SDS011;34959;49.310;8.646;2022-12-07T04:19:17;1.67;;;1.15;;
49139;SDS011;34959;49.310;8.646;2022-12-07T04:21:43;3.08;;;1.60;;
49139;SDS011;34959;49.310;8.646;2022-12-07T04:24:12;3.70;;;1.55;;
49139;SDS011;34959;49.310;8.646;2022-12-07T04:26:38;2.50;;;1.38;;
49139;SDS011;34959;49.310;8.646;2022-12-07T04:29:04;2.85;;;1.52;;
49139;SDS011;34959;49.310;8.646;2022-12-07T04:31:29;6.32;;;1.55;;
49139;SDS011;34959;49.310;8.646;2022-12-07T04:33:55;2.13;;;1.40;;
49139;SDS011;34959;49.310;8.646;2022-12-07T04:36:20;2.78;;;1.55;;
49139;SDS011;34959;49.310;8.646;2022-12-07T04:38:46;2.67;;;1.30;;
49139;SDS011;34959;49.310;8.646;2022-12-07T04:41:12;2.40;;;1.48;;
49139;SDS011;34959;49.310;8.646;2022-12-07T04:43:38;2.72;;;1.20;;
49139;SDS011;34959;49.310;8.646;2022-12-07T04:46:03;2.00;;;1.40;;
49139;SDS011;34959;49.310;8.646;2022-12-07T04:48:29;3.17;;;1.40;;
49139;SDS011;34959;49.310;8.646;2022-12-07T04:50:54;2.92;;;1.65;;
49139;SDS011;34959;49.310;8.646;2022-12-07T04:53:20;2.35;;;1.20;;
49139;SDS011;34959;49.310;8.646;2022-12-07T04:55:46;2.90;;;1.48;;
49139;SDS011;34959;49.310;8.646;2022-12-07T04:58:12;1.58;;;1.20;;
49139;SDS011;34959;49.310;8.646;2022-12-07T05:00:38;4.18;;;1.83;;
49139;SDS011;34959;49.310;8.646;2022-12-07T05:03:03;3.38;;;1.42;;
49139;SDS011;34959;49.310;8.646;2022-12-07T05:05:29;2.25;;;1.38;;
49139;SDS011;34959;49.310;8.646;2022-12-07T05:07:54;3.08;;;1.50;;
49139;SDS011;34959;49.310;8.646;2022-12-07T05:10:20;3.35;;;1.85;;
49139;SDS011;34959;49.310;8.646;2022-12-07T05:12:45;2.22;;;1.40;;
49139;SDS011;34959;49.310;8.646;2022-12-07T05:15:12;1.92;;;1.25;;
49139;SDS011;34959;49.310;8.646;2022-12-07T05:17:38;3.63;;;1.60;;
49139;SDS011;34959;49.310;8.646;2022-12-07T05:20:04;2.45;;;1.52;;
49139;SDS011;34959;49.310;8.646;2022-12-07T05:22:30;1.55;;;1.23;;
49139;SDS011;34959;49.310;8.646;2022-12-07T05:24:55;2.03;;;1.10;;
49139;SDS011;34959;49.310;8.646;2022-12-07T05:27:21;2.47;;;1.48;;
49139;SDS011;34959;49.310;8.646;2022-12-07T05:29:46;2.40;;;1.40;;
49139;SDS011;34959;49.310;8.646;2022-12-07T05:32:12;2.08;;;1.20;;
49139;SDS011;34959;49.310;8.646;2022-12-07T05:34:37;2.95;;;1.85;;
49139;SDS011;34959;49.310;8.646;2022-12-07T05:37:02;2.83;;;1.40;;
49139;SDS011;34959;49.310;8.646;2022-12-07T05:39:28;2.15;;;1.42;;
49139;SDS011;34959;49.310;8.646;2022-12-07T05:41:53;2.17;;;1.30;;
49139;SDS011;34959;49.310;8.646;2022-12-07T05:44:37;2.65;;;1.45;;
49139;SDS011;34959;49.310;8.646;2022-12-07T05:47:10;2.08;;;1.30;;
49139;SDS011;34959;49.310;8.646;2022-12-07T05:49:36;2.35;;;1.50;;
49139;SDS011;34959;49.310;8.646;2022-12-07T05:52:01;2.58;;;1.30;;
49139;SDS011;34959;49.310;8.646;2022-12-07T05:54:27;2.28;;;1.30;;
49139;SDS011;34959;49.310;8.646;2022-12-07T05:56:52;1.88;;;1.30;;
49139;SDS011;34959;49.310;8.646;2022-12-07T05:59:18;1.58;;;1.20;;
49139;SDS011;34959;49.310;8.646;2022-12-07T06:01:56;2.63;;;1.40;;
49139;SDS011;34959;49.310;8.646;2022-12-07T06:04:24;2.22;;;1.50;;
49139;SDS011;34959;49.310;8.646;2022-12-07T06:06:50;3.05;;;1.70;;
49139;SDS011;34959;49.310;8.646;2022-12-07T06:09:16;2.90;;;1.50;;
49139;SDS011;34959;49.310;8.646;2022-12-07T06:11:43;2.45;;;1.60;;
49139;SDS011;34959;49.310;8.646;2022-12-07T06:14:28;3.20;;;1.60;;
49139;SDS011;34959;49.310;8.646;2022-12-07T06:16:53;2.50;;;1.40;;
49139;SDS011;34959;49.310;8.646;2022-12-07T06:19:19;1.90;;;1.30;;
49139;SDS011;34959;49.310;8.646;2022-12-07T06:21:44;2.03;;;1.27;;
49139;SDS011;34959;49.310;8.646;2022-12-07T06:24:11;2.95;;;1.60;;
49139;SDS011;34959;49.310;8.646;2022-12-07T06:26:37;2.42;;;1.42;;
49139;SDS011;34959;49.310;8.646;2022-12-07T06:29:02;3.15;;;1.60;;
49139;SDS011;34959;49.310;8.646;2022-12-07T06:31:28;2.05;;;1.45;;
49139;SDS011;34959;49.310;8.646;2022-12-07T06:34:00;3.55;;;1.38;;
49139;SDS011;34959;49.310;8.646;2022-12-07T06:36:27;3.75;;;1.90;;
49139;SDS011;34959;49.310;8.646;2022-12-07T06:38:52;1.90;;;1.30;;
49139;SDS011;34959;49.310;8.646;2022-12-07T06:41:18;2.72;;;1.70;;
49139;SDS011;34959;49.310;8.646;2022-12-07T06:43:44;2.35;;;1.60;;
49139;SDS011;34959;49.310;8.646;2022-12-07T06:46:09;2.38;;;1.65;;
49139;SDS011;34959;49.310;8.646;2022-12-07T06:48:34;2.35;;;1.50;;
49139;SDS011;34959;49.310;8.646;2022-12-07T06:51:00;2.53;;;1.40;;
49139;SDS011;34959;49.310;8.646;2022-12-07T06:53:25;2.13;;;1.45;;
49139;SDS011;34959;49.310;8.646;2022-12-07T06:55:51;2.10;;;1.40;;
49139;SDS011;34959;49.310;8.646;2022-12-07T06:58:17;2.70;;;1.60;;
49139;SDS011;34959;49.310;8.646;2022-12-07T07:00:43;3.22;;;1.65;;
49139;SDS011;34959;49.310;8.646;2022-12-07T07:03:09;2.08;;;1.50;;
49139;SDS011;34959;49.310;8.646;2022-12-07T07:05:34;2.70;;;1.40;;
49139;SDS011;34959;49.310;8.646;2022-12-07T07:08:00;1.63;;;1.40;;
49139;SDS011;34959;49.310;8.646;2022-12-07T07:10:26;3.55;;;1.33;;
49139;SDS011;34959;49.310;8.646;2022-12-07T07:12:51;1.90;;;1.30;;
49139;SDS011;34959;49.310;8.646;2022-12-07T07:15:16;2.55;;;1.60;;
49139;SDS011;34959;49.310;8.646;2022-12-07T07:17:42;2.47;;;1.30;;
49139;SDS011;34959;49.310;8.646;2022-12-07T07:20:08;2.97;;;1.48;;
49139;SDS011;34959;49.310;8.646;2022-12-07T07:22:34;1.58;;;1.40;;
49139;SDS011;34959;49.310;8.646;2022-12-07T07:24:59;8.25;;;2.10;;
49139;SDS011;34959;49.310;8.646;2022-12-07T07:27:24;2.33;;;1.40;;
49139;SDS011;34959;49.310;8.646;2022-12-07T07:29:50;1.55;;;1.30;;
49139;SDS011;34959;49.310;8.646;2022-12-07T07:32:15;2.42;;;1.63;;
49139;SDS011;34959;49.310;8.646;2022-12-07T07:34:41;2.42;;;1.58;;
49139;SDS011;34959;49.310;8.646;2022-12-07T07:37:06;2.58;;;1.20;;
49139;SDS011;34959;49.310;8.646;2022-12-07T07:39:31;2.38;;;1.45;;
49139;SDS011;34959;49.310;8.646;2022-12-07T07:41:57;2.47;;;1.35;;
49139;SDS011;34959;49.310;8.646;2022-12-07T07:44:22;1.95;;;1.30;;
49139;SDS011;34959;49.310;8.646;2022-12-07T07:46:48;2.17;;;1.40;;
49139;SDS011;34959;49.310;8.646;2022-12-07T07:49:13;2.15;;;1.58;;
49139;SDS011;34959;49.310;8.646;2022-12-07T07:51:38;2.83;;;1.50;;
49139;SDS011;34959;49.310;8.646;2022-12-07T07:54:04;2.50;;;1.30;;
49139;SDS011;34959;49.310;8.646;2022-12-07T07:56:30;2.67;;;1.50;;
49139;SDS011;34959;49.310;8.646;2022-12-07T07:58:55;2.10;;;1.75;;
49139;SDS011;34959;49.310;8.646;2022-12-07T08:01:21;2.63;;;1.55;;
49139;SDS011;34959;49.310;8.646;2022-12-07T08:03:46;3.08;;;1.83;;
49139;SDS011;34959;49.310;8.646;2022-12-07T08:06:12;1.60;;;1.35;;
49139;SDS011;34959;49.310;8.646;2022-12-07T08:08:37;2.28;;;1.60;;
49139;SDS011;34959;49.310;8.646;2022-12-07T08:11:06;2.17;;;1.55;;
49139;SDS011;34959;49.310;8.646;2022-12-07T08:13:32;2.10;;;1.55;;
49139;SDS011;34959;49.310;8.646;2022-12-07T08:15:58;2.55;;;1.88;;
49139;SDS011;34959;49.310;8.646;2022-12-07T08:18:24;7.53;;;1.92;;
49139;SDS011;34959;49.310;8.646;2022-12-07T08:20:49;2.97;;;1.70;;
49139;SDS011;34959;49.310;8.646;2022-12-07T08:23:15;2.33;;;1.70;;
49139;SDS011;34959;49.310;8.646;2022-12-07T08:25:40;3.33;;;1.98;;
49139;SDS011;34959;49.310;8.646;2022-12-07T08:28:06;2.75;;;2.03;;
49139;SDS011;34959;49.310;8.646;2022-12-07T08:30:31;2.70;;;1.70;;
49139;SDS011;34959;49.310;8.646;2022-12-07T08:32:57;6.55;;;2.00;;
49139;SDS011;34959;49.310;8.646;2022-12-07T08:35:22;2.47;;;1.80;;
49139;SDS011;34959;49.310;8.646;2022-12-07T08:37:48;4.10;;;2.00;;
49139;SDS011;34959;49.310;8.646;2022-12-07T08:40:13;5.10;;;1.70;;
49139;SDS011;34959;49.310;8.646;2022-12-07T08:42:43;2.63;;;1.70;;
49139;SDS011;34959;49.310;8.646;2022-12-07T08:45:16;2.40;;;1.70;;
49139;SDS011;34959;49.310;8.646;2022-12-07T08:48:06;3.22;;;1.90;;
49139;SDS011;34959;49.310;8.646;2022-12-07T08:50:31;2.30;;;1.85;;
49139;SDS011;34959;49.310;8.646;2022-12-07T08:52:58;3.10;;;1.65;;
49139;SDS011;34959;49.310;8.646;2022-12-07T08:55:24;3.58;;;2.17;;
49139;SDS011;34959;49.310;8.646;2022-12-07T08:57:50;2.97;;;1.80;;
49139;SDS011;34959;49.310;8.646;2022-12-07T09:00:17;3.67;;;2.08;;
49139;SDS011;34959;49.310;8.646;2022-12-07T09:02:43;4.47;;;2.63;;
49139;SDS011;34959;49.310;8.646;2022-12-07T09:05:09;4.75;;;2.17;;
49139;SDS011;34959;49.310;8.646;2022-12-07T09:07:35;3.50;;;2.05;;
49139;SDS011;34959;49.310;8.646;2022-12-07T09:10:00;2.78;;;1.70;;
49139;SDS011;34959;49.310;8.646;2022-12-07T09:12:26;3.13;;;2.10;;
49139;SDS011;34959;49.310;8.646;2022-12-07T09:14:52;2.90;;;1.80;;
49139;SDS011;34959;49.310;8.646;2022-12-07T09:17:17;4.07;;;1.90;;
49139;SDS011;34959;49.310;8.646;2022-12-07T09:19:42;3.88;;;2.15;;
49139;SDS011;34959;49.310;8.646;2022-12-07T09:22:08;6.43;;;2.40;;
49139;SDS011;34959;49.310;8.646;2022-12-07T09:24:34;4.20;;;2.15;;
49139;SDS011;34959;49.310;8.646;2022-12-07T09:26:59;4.47;;;2.60;;
49139;SDS011;34959;49.310;8.646;2022-12-07T09:29:25;4.75;;;2.42;;
49139;SDS011;34959;49.310;8.646;2022-12-07T09:31:51;4.78;;;2.53;;
49139;SDS011;34959;49.310;8.646;2022-12-07T09:34:16;5.03;;;2.55;;
49139;SDS011;34959;49.310;8.646;2022-12-07T09:36:42;4.43;;;2.22;;
49139;SDS011;34959;49.310;8.646;2022-12-07T09:39:08;4.60;;;2.42;;
49139;SDS011;34959;49.310;8.646;2022-12-07T09:41:34;8.52;;;7.28;;
49139;SDS011;34959;49.310;8.646;2022-12-07T09:44:04;9.00;;;7.50;;
49139;SDS011;34959;49.310;8.646;2022-12-07T09:46:33;9.23;;;7.68;;
49139;SDS011;34959;49.310;8.646;2022-12-07T09:49:01;14.02;;;7.25;;
49139;SDS011;34959;49.310;8.646;2022-12-07T09:51:27;22.48;;;7.45;;
49139;SDS011;34959;49.310;8.646;2022-12-07T09:53:53;20.33;;;5.97;;
49139;SDS011;34959;49.310;8.646;2022-12-07T09:56:19;9.40;;;4.65;;
49139;SDS011;34959;49.310;8.646;2022-12-07T09:58:46;8.23;;;4.53;;
49139;SDS011;34959;49.310;8.646;2022-12-07T10:03:39;7.00;;;4.90;;
49139;SDS011;34959;49.310;8.646;2022-12-07T10:06:06;6.68;;;3.92;;
49139;SDS011;34959;49.310;8.646;2022-12-07T10:08:32;5.35;;;3.40;;
49139;SDS011;34959;49.310;8.646;2022-12-07T10:10:58;7.75;;;3.67;;
49139;SDS011;34959;49.310;8.646;2022-12-07T10:13:34;7.03;;;3.50;;
49139;SDS011;34959;49.310;8.646;2022-12-07T10:16:03;6.28;;;3.38;;
49139;SDS011;34959;49.310;8.646;2022-12-07T10:18:31;5.10;;;2.97;;
49139;SDS011;34959;49.310;8.646;2022-12-07T10:26:48;5.22;;;3.10;;
49139;SDS011;34959;49.310;8.646;2022-12-07T10:29:17;6.60;;;3.08;;
49139;SDS011;34959;49.310;8.646;2022-12-07T10:31:47;4.60;;;3.05;;
49139;SDS011;34959;49.310;8.646;2022-12-07T10:34:22;4.00;;;2.50;;
49139;SDS011;34959;49.310;8.646;2022-12-07T10:36:55;5.65;;;3.10;;
49139;SDS011;34959;49.310;8.646;2022-12-07T10:39:43;3.97;;;2.42;;
49139;SDS011;34959;49.310;8.646;2022-12-07T10:44:48;5.85;;;2.63;;
49139;SDS011;34959;49.310;8.646;2022-12-07T10:47:23;3.35;;;2.67;;
49139;SDS011;34959;49.310;8.646;2022-12-07T10:52:57;5.18;;;2.83;;
49139;SDS011;34959;49.310;8.646;2022-12-07T11:00:48;3.70;;;2.40;;
49139;SDS011;34959;49.310;8.646;2022-12-07T11:11:23;3.85;;;2.38;;
49139;SDS011;34959;49.310;8.646;2022-12-07T11:13:53;3.72;;;2.58;;
49139;SDS011;34959;49.310;8.646;2022-12-07T11:27:04;3.40;;;2.45;;
49139;SDS011;34959;49.310;8.646;2022-12-07T11:38:16;4.47;;;2.25;;
49139;SDS011;34959;49.310;8.646;2022-12-07T11:40:43;4.25;;;2.17;;
49139;SDS011;34959;49.310;8.646;2022-12-07T11:45:48;4.25;;;2.20;;
49139;SDS011;34959;49.310;8.646;2022-12-07T11:48:22;3.67;;;2.35;;
49139;SDS011;34959;49.310;8.646;2022-12-07T11:50:57;3.38;;;2.15;;
49139;SDS011;34959;49.310;8.646;2022-12-07T11:53:26;5.10;;;2.22;;
49139;SDS011;34959;49.310;8.646;2022-12-07T11:56:12;3.28;;;2.08;;
49139;SDS011;34959;49.310;8.646;2022-12-07T12:01:53;3.65;;;2.00;;
49139;SDS011;34959;49.310;8.646;2022-12-07T12:06:58;2.95;;;2.17;;
49139;SDS011;34959;49.310;8.646;2022-12-07T12:09:34;3.30;;;2.13;;
49139;SDS011;34959;49.310;8.646;2022-12-07T12:12:10;4.05;;;2.35;;
49139;SDS011;34959;49.310;8.646;2022-12-07T12:23:56;3.38;;;2.10;;
49139;SDS011;34959;49.310;8.646;2022-12-07T12:26:47;3.35;;;1.95;;
49139;SDS011;34959;49.310;8.646;2022-12-07T12:31:35;4.70;;;2.20;;
49139;SDS011;34959;49.310;8.646;2022-12-07T12:34:10;3.83;;;2.22;;
49139;SDS011;34959;49.310;8.646;2022-12-07T12:37:29;2.72;;;2.08;;
49139;SDS011;34959;49.310;8.646;2022-12-07T12:45:22;3.25;;;1.95;;
49139;SDS011;34959;49.310;8.646;2022-12-07T12:47:53;5.50;;;2.08;;
49139;SDS011;34959;49.310;8.646;2022-12-07T12:50:31;2.07;;;1.40;;
49139;SDS011;34959;49.310;8.646;2022-12-07T12:55:54;3.45;;;2.00;;
49139;SDS011;34959;49.310;8.646;2022-12-07T12:58:37;4.65;;;2.17;;
49139;SDS011;34959;49.310;8.646;2022-12-07T13:04:01;3.15;;;2.00;;
49139;SDS011;34959;49.310;8.646;2022-12-07T13:08:53;2.60;;;1.90;;
49139;SDS011;34959;49.310;8.646;2022-12-07T13:11:29;4.43;;;2.03;;
49139;SDS011;34959;49.310;8.646;2022-12-07T13:17:00;6.85;;;1.80;;
49139;SDS011;34959;49.310;8.646;2022-12-07T13:28:01;2.35;;;1.65;;
49139;SDS011;34959;49.310;8.646;2022-12-07T13:33:10;3.65;;;1.98;;
49139;SDS011;34959;49.310;8.646;2022-12-07T13:35:36;2.70;;;1.73;;
49139;SDS011;34959;49.310;8.646;2022-12-07T13:38:14;2.33;;;1.73;;
49139;SDS011;34959;49.310;8.646;2022-12-07T13:40:58;2.83;;;1.95;;
49139;SDS011;34959;49.310;8.646;2022-12-07T13:43:24;3.00;;;1.85;;
49139;SDS011;34959;49.310;8.646;2022-12-07T13:45:55;3.60;;;1.67;;
49139;SDS011;34959;49.310;8.646;2022-12-07T13:48:33;3.80;;;1.88;;
49139;SDS011;34959;49.310;8.646;2022-12-07T13:51:18;2.53;;;1.58;;
49139;SDS011;34959;49.310;8.646;2022-12-07T13:54:10;3.28;;;1.73;;
49139;SDS011;34959;49.310;8.646;2022-12-07T13:56:36;2.53;;;1.63;;
49139;SDS011;34959;49.310;8.646;2022-12-07T13:59:05;2.63;;;2.08;;
49139;SDS011;34959;49.310;8.646;2022-12-07T14:01:32;2.20;;;1.48;;
49139;SDS011;34959;49.310;8.646;2022-12-07T14:04:17;3.28;;;1.70;;
49139;SDS011;34959;49.310;8.646;2022-12-07T14:06:55;1.83;;;1.60;;
49139;SDS011;34959;49.310;8.646;2022-12-07T14:09:22;2.20;;;1.77;;
49139;SDS011;34959;49.310;8.646;2022-12-07T14:11:49;2.30;;;1.60;;
49139;SDS011;34959;49.310;8.646;2022-12-07T14:14:20;3.00;;;1.52;;
49139;SDS011;34959;49.310;8.646;2022-12-07T14:20:27;2.22;;;1.50;;
49139;SDS011;34959;49.310;8.646;2022-12-07T14:22:54;2.63;;;1.70;;
49139;SDS011;34959;49.310;8.646;2022-12-07T14:25:21;1.80;;;1.45;;
49139;SDS011;34959;49.310;8.646;2022-12-07T14:27:49;2.15;;;1.80;;
49139;SDS011;34959;49.310;8.646;2022-12-07T14:30:34;2.08;;;1.55;;
49139;SDS011;34959;49.310;8.646;2022-12-07T14:33:00;2.75;;;1.63;;
49139;SDS011;34959;49.310;8.646;2022-12-07T14:35:29;2.45;;;1.63;;
49139;SDS011;34959;49.310;8.646;2022-12-07T14:37:55;2.15;;;1.77;;
49139;SDS011;34959;49.310;8.646;2022-12-07T14:40:21;2.15;;;1.80;;
49139;SDS011;34959;49.310;8.646;2022-12-07T14:42:57;2.10;;;1.50;;
49139;SDS011;34959;49.310;8.646;2022-12-07T14:45:26;2.35;;;1.55;;
49139;SDS011;34959;49.310;8.646;2022-12-07T14:47:51;1.83;;;1.38;;
49139;SDS011;34959;49.310;8.646;2022-12-07T14:50:17;2.22;;;1.50;;
49139;SDS011;34959;49.310;8.646;2022-12-07T14:52:44;2.45;;;1.70;;
49139;SDS011;34959;49.310;8.646;2022-12-07T14:55:13;2.75;;;1.70;;
49139;SDS011;34959;49.310;8.646;2022-12-07T14:57:40;2.67;;;1.60;;
49139;SDS011;34959;49.310;8.646;2022-12-07T15:00:05;2.38;;;1.60;;
49139;SDS011;34959;49.310;8.646;2022-12-07T15:02:31;2.53;;;1.48;;
49139;SDS011;34959;49.310;8.646;2022-12-07T15:04:56;2.22;;;1.40;;
49139;SDS011;34959;49.310;8.646;2022-12-07T15:07:22;2.15;;;1.48;;
49139;SDS011;34959;49.310;8.646;2022-12-07T15:09:48;1.80;;;1.30;;
49139;SDS011;34959;49.310;8.646;2022-12-07T15:12:14;2.53;;;1.60;;
49139;SDS011;34959;49.310;8.646;2022-12-07T15:14:40;2.25;;;1.67;;
49139;SDS011;34959;49.310;8.646;2022-12-07T15:17:05;1.83;;;1.60;;
49139;SDS011;34959;49.310;8.646;2022-12-07T15:19:31;1.95;;;1.50;;
49139;SDS011;34959;49.310;8.646;2022-12-07T15:21:57;2.58;;;1.48;;
49139;SDS011;34959;49.310;8.646;2022-12-07T15:24:23;2.30;;;1.45;;
49139;SDS011;34959;49.310;8.646;2022-12-07T15:26:49;1.52;;;1.40;;
49139;SDS011;34959;49.310;8.646;2022-12-07T15:29:14;2.28;;;1.70;;
49139;SDS011;34959;49.310;8.646;2022-12-07T15:31:41;3.35;;;1.50;;
49139;SDS011;34959;49.310;8.646;2022-12-07T15:34:06;2.22;;;1.60;;
49139;SDS011;34959;49.310;8.646;2022-12-07T15:36:33;2.60;;;1.33;;
49139;SDS011;34959;49.310;8.646;2022-12-07T15:38:59;2.50;;;1.60;;
49139;SDS011;34959;49.310;8.646;2022-12-07T15:41:25;2.40;;;1.60;;
49139;SDS011;34959;49.310;8.646;2022-12-07T15:43:50;2.45;;;1.55;;
49139;SDS011;34959;49.310;8.646;2022-12-07T15:46:38;2.10;;;1.60;;
49139;SDS011;34959;49.310;8.646;2022-12-07T15:49:38;3.28;;;1.63;;
49139;SDS011;34959;49.310;8.646;2022-12-07T15:51:57;3.88;;;1.58;;
49139;SDS011;34959;49.310;8.646;2022-12-07T15:54:23;1.90;;;1.48;;
49139;SDS011;34959;49.310;8.646;2022-12-07T15:56:50;2.08;;;1.50;;
49139;SDS011;34959;49.310;8.646;2022-12-07T15:59:16;3.92;;;1.60;;
49139;SDS011;34959;49.310;8.646;2022-12-07T16:01:42;1.95;;;1.63;;
49139;SDS011;34959;49.310;8.646;2022-12-07T16:04:07;4.22;;;2.05;;
49139;SDS011;34959;49.310;8.646;2022-12-07T16:06:33;2.88;;;1.42;;
49139;SDS011;34959;49.310;8.646;2022-12-07T16:08:58;1.55;;;1.30;;
49139;SDS011;34959;49.310;8.646;2022-12-07T16:11:23;2.13;;;1.35;;
49139;SDS011;34959;49.310;8.646;2022-12-07T16:13:49;2.10;;;1.20;;
49139;SDS011;34959;49.310;8.646;2022-12-07T16:16:15;3.05;;;1.60;;
49139;SDS011;34959;49.310;8.646;2022-12-07T16:18:43;2.55;;;1.40;;
49139;SDS011;34959;49.310;8.646;2022-12-07T16:21:09;2.13;;;1.50;;
49139;SDS011;34959;49.310;8.646;2022-12-07T16:23:34;2.55;;;1.30;;
49139;SDS011;34959;49.310;8.646;2022-12-07T16:26:04;2.30;;;1.50;;
49139;SDS011;34959;49.310;8.646;2022-12-07T16:28:34;1.75;;;1.25;;
49139;SDS011;34959;49.310;8.646;2022-12-07T16:31:01;2.10;;;1.33;;
49139;SDS011;34959;49.310;8.646;2022-12-07T16:33:30;2.35;;;1.40;;
49139;SDS011;34959;49.310;8.646;2022-12-07T16:35:55;2.05;;;1.40;;
49139;SDS011;34959;49.310;8.646;2022-12-07T16:38:21;3.05;;;1.30;;
49139;SDS011;34959;49.310;8.646;2022-12-07T16:40:46;3.05;;;1.38;;
49139;SDS011;34959;49.310;8.646;2022-12-07T16:43:13;2.10;;;1.42;;
49139;SDS011;34959;49.310;8.646;2022-12-07T16:45:38;1.63;;;1.20;;
49139;SDS011;34959;49.310;8.646;2022-12-07T16:48:04;2.33;;;1.40;;
49139;SDS011;34959;49.310;8.646;2022-12-07T16:50:29;1.80;;;1.17;;
49139;SDS011;34959;49.310;8.646;2022-12-07T16:52:55;1.67;;;1.30;;
49139;SDS011;34959;49.310;8.646;2022-12-07T16:55:20;1.83;;;1.15;;
49139;SDS011;34959;49.310;8.646;2022-12-07T16:57:46;1.63;;;1.13;;
49139;SDS011;34959;49.310;8.646;2022-12-07T17:00:11;1.58;;;1.20;;
49139;SDS011;34959;49.310;8.646;2022-12-07T17:02:37;1.30;;;1.02;;
49139;SDS011;34959;49.310;8.646;2022-12-07T17:05:02;1.30;;;1.10;;
49139;SDS011;34959;49.310;8.646;2022-12-07T17:07:28;1.73;;;1.20;;
49139;SDS011;34959;49.310;8.646;2022-12-07T17:09:53;3.05;;;1.38;;
49139;SDS011;34959;49.310;8.646;2022-12-07T17:12:19;2.35;;;1.30;;
49139;SDS011;34959;49.310;8.646;2022-12-07T17:14:44;2.05;;;1.30;;